VIAG/AGR METAR and TAF weather

Enter ICAO airport designator
Station Type Date Time Source
VIAG METAR 2019/06/26 06:30 UTC NOAA

VIAG 260630Z 23007KT 6000 FEW030 SCT250 39/24 Q1001 NOSIG


Station Type Date Time Source
VIAG Decoded METAR 2019/06/26 06:30 UTC NOAA

Agra, India (VIAG) 27-09N 077-58E 169M
Jun 26, 2019 - 02:30 AM EDT / 2019.06.26 0630 UTC
Wind: from the SW (230 degrees) at 8 MPH (7 KT):0
Visibility: 3 mile(s):0
Sky conditions: partly cloudy
Temperature: 102 F (39 C)
Heat index: 115.9 F (46.6 C):1
Dew Point: 75 F (24 C)
Relative Humidity: 42%
Pressure (altimeter): 29.56 in. Hg (1001 hPa)
ob: VIAG 260630Z 23007KT 6000 FEW030 SCT250 39/24 Q1001 NOSIG
cycle: 6

Station Type Date Time Source
VIAG TAF 2019/06/27 00:30 UTC NOAA

TAF VIAG 262130Z 2700/2712 18005KT 6000 FEW030 SCT090
TEMPO 2708/2709 11015G25KT 3000 TSRA SCT020 FEW030CB BKN090

Example: see airport list